createdAt,value
2023-02-27T00:01:32.901Z,83
2023-02-27T00:03:33.100Z,82
2023-02-27T00:05:38.203Z,83
2023-02-27T00:07:32.783Z,83
2023-02-27T00:11:38.282Z,83
2023-02-27T00:13:35.610Z,83
2023-02-27T00:15:33.968Z,83
2023-02-27T00:21:30.798Z,83
2023-02-27T00:23:31.236Z,83
2023-02-27T00:25:36.789Z,83
2023-02-27T00:31:31.157Z,83
2023-02-27T00:33:37.480Z,83
2023-02-27T00:35:34.602Z,83
2023-02-27T00:37:30.263Z,83
2023-02-27T00:39:36.520Z,83
2023-02-27T00:41:32.626Z,83
2023-02-27T00:43:29.298Z,83
2023-02-27T00:45:33.607Z,83
2023-02-27T00:47:35.607Z,83
2023-02-27T00:51:29.701Z,83
2023-02-27T00:53:36.660Z,83
2023-02-27T00:55:30.932Z,84
2023-02-27T00:59:33.539Z,84
2023-02-27T01:01:37.341Z,84
2023-02-27T01:03:33.103Z,84
2023-02-27T01:05:35.404Z,84
2023-02-27T01:07:36.398Z,84
2023-02-27T01:09:33.379Z,84
2023-02-27T01:11:28.821Z,84
2023-02-27T01:13:34.363Z,84
2023-02-27T01:15:31.728Z,84
2023-02-27T01:17:33.911Z,84
2023-02-27T01:19:33.859Z,84
2023-02-27T01:21:34.013Z,84
2023-02-27T01:25:30.383Z,84
2023-02-27T01:33:37.213Z,84
2023-02-27T01:35:34.470Z,84
2023-02-27T01:37:33.807Z,84
2023-02-27T01:39:30.660Z,84
2023-02-27T01:41:36.905Z,84
2023-02-27T01:43:34.441Z,85
2023-02-27T01:45:32.187Z,84
2023-02-27T01:49:30.644Z,84
2023-02-27T01:51:32.383Z,84
2023-02-27T01:53:34.796Z,84
2023-02-27T01:55:34.434Z,85
2023-02-27T01:57:30.677Z,85
2023-02-27T02:01:35.134Z,85
2023-02-27T02:03:38.426Z,85
2023-02-27T02:05:30.573Z,85
2023-02-27T02:09:30.370Z,85
2023-02-27T02:11:36.118Z,85
2023-02-27T02:13:31.884Z,85
2023-02-27T02:15:37.029Z,85
2023-02-27T02:17:36.276Z,85
2023-02-27T02:19:32.374Z,85
2023-02-27T02:21:30.665Z,85
2023-02-27T02:23:29.626Z,85
2023-02-27T02:25:34.536Z,85
2023-02-27T02:27:30.655Z,85
2023-02-27T02:29:31.006Z,85
2023-02-27T02:31:32.994Z,85
2023-02-27T02:33:31.009Z,85
2023-02-27T02:35:32.687Z,85
2023-02-27T02:37:30.356Z,85
2023-02-27T02:39:33.565Z,85
2023-02-27T02:41:29.781Z,85
2023-02-27T02:43:38.325Z,85
2023-02-27T02:45:30.188Z,85
2023-02-27T02:47:37.120Z,85
2023-02-27T02:51:39.376Z,85
2023-02-27T02:53:36.541Z,85
2023-02-27T02:55:31.982Z,85
2023-02-27T02:59:30.207Z,85
2023-02-27T03:01:31.891Z,85
2023-02-27T03:03:31.607Z,85
2023-02-27T03:05:30.297Z,85
2023-02-27T03:07:36.925Z,85
2023-02-27T03:09:33.312Z,85
2023-02-27T03:11:31.251Z,85
2023-02-27T03:13:30.294Z,85
2023-02-27T03:15:31.804Z,85
2023-02-27T03:17:37.696Z,85
2023-02-27T03:19:37.517Z,85
2023-02-27T03:21:35.857Z,85
2023-02-27T03:23:30.204Z,85
2023-02-27T03:25:30.355Z,85
2023-02-27T03:27:37.152Z,85
2023-02-27T03:31:34.093Z,85
2023-02-27T03:33:31.953Z,85
2023-02-27T03:37:30.363Z,85
2023-02-27T03:39:34.904Z,85
2023-02-27T03:41:33.628Z,85
2023-02-27T03:47:27.564Z,85
2023-02-27T03:49:30.336Z,85
2023-02-27T03:51:38.591Z,85
2023-02-27T03:53:30.349Z,85
2023-02-27T03:55:30.533Z,85
2023-02-27T03:57:35.626Z,85
2023-02-27T03:59:34.556Z,85
2023-02-27T04:01:30.533Z,85
2023-02-27T04:03:30.334Z,85
2023-02-27T04:05:37.228Z,85
2023-02-27T04:07:30.410Z,85
2023-02-27T04:09:34.110Z,85
2023-02-27T04:11:35.161Z,85
2023-02-27T04:21:33.879Z,85
2023-02-27T04:35:36.066Z,85
2023-02-27T04:37:30.870Z,85
2023-02-27T04:41:33.969Z,85
2023-02-27T04:43:30.221Z,85
2023-02-27T04:45:34.977Z,85
2023-02-27T04:49:30.260Z,86
2023-02-27T04:51:30.707Z,85
2023-02-27T04:55:30.285Z,85
2023-02-27T04:57:35.553Z,85
2023-02-27T04:59:32.403Z,85
2023-02-27T05:01:30.663Z,86
2023-02-27T05:03:30.352Z,85
2023-02-27T05:05:38.247Z,85
2023-02-27T05:07:30.408Z,85
2023-02-27T05:09:33.884Z,85
2023-02-27T05:11:30.225Z,85
2023-02-27T05:13:32.406Z,85
2023-02-27T05:15:33.863Z,85
2023-02-27T05:17:30.374Z,85
2023-02-27T05:19:34.985Z,85
2023-02-27T05:21:33.552Z,85
2023-02-27T05:23:31.895Z,85
2023-02-27T05:25:31.575Z,85
2023-02-27T05:27:33.309Z,85
2023-02-27T05:29:33.302Z,85
2023-02-27T05:31:34.630Z,85
2023-02-27T05:33:30.375Z,85
2023-02-27T05:35:30.429Z,86
2023-02-27T05:37:33.520Z,86
2023-02-27T05:39:37.404Z,86
2023-02-27T05:41:30.446Z,85
2023-02-27T05:43:30.384Z,85
2023-02-27T05:51:33.948Z,85
2023-02-27T05:53:31.234Z,86
2023-02-27T05:55:34.628Z,85
2023-02-27T05:57:28.602Z,85
2023-02-27T05:59:30.356Z,85
2023-02-27T06:01:36.545Z,85
2023-02-27T06:03:27.173Z,85
2023-02-27T06:05:30.335Z,85
2023-02-27T06:07:34.925Z,85
2023-02-27T06:09:36.056Z,85
2023-02-27T06:11:35.582Z,85
2023-02-27T06:13:34.040Z,85
2023-02-27T06:15:30.319Z,85
2023-02-27T06:17:30.467Z,85
2023-02-27T06:19:28.336Z,84
2023-02-27T06:21:30.349Z,84
2023-02-27T06:23:32.618Z,84
2023-02-27T06:25:27.574Z,84
2023-02-27T06:27:38.100Z,84
2023-02-27T06:29:33.838Z,84
2023-02-27T06:31:30.351Z,84
2023-02-27T06:33:31.426Z,84
2023-02-27T06:37:30.359Z,84
2023-02-27T06:39:38.102Z,84
2023-02-27T06:41:33.517Z,84
2023-02-27T06:47:27.453Z,84
2023-02-27T06:49:30.300Z,84
2023-02-27T06:51:30.375Z,83
2023-02-27T06:55:36.407Z,83
2023-02-27T06:57:30.238Z,83
2023-02-27T06:59:27.446Z,83
2023-02-27T07:01:33.249Z,83
2023-02-27T07:03:35.417Z,83
2023-02-27T07:05:30.322Z,83
2023-02-27T07:07:33.608Z,82
2023-02-27T07:09:30.252Z,82
2023-02-27T07:11:30.320Z,82
2023-02-27T07:13:36.304Z,82
2023-02-27T07:15:36.336Z,82
2023-02-27T07:17:33.713Z,82
2023-02-27T07:19:36.407Z,82
2023-02-27T07:21:30.418Z,82
2023-02-27T07:23:32.087Z,82
2023-02-27T07:27:37.343Z,82
2023-02-27T07:29:29.718Z,82
2023-02-27T07:31:30.258Z,81
2023-02-27T07:33:27.465Z,81
2023-02-27T07:35:28.518Z,81
2023-02-27T07:37:29.695Z,81
2023-02-27T07:39:30.273Z,81
2023-02-27T07:41:30.890Z,80
2023-02-27T07:45:28.291Z,74
2023-02-27T07:47:29.795Z,72
2023-02-27T07:49:29.792Z,70
2023-02-27T07:51:33.488Z,71
2023-02-27T07:53:29.835Z,69
2023-02-27T07:55:29.822Z,70
2023-02-27T07:57:33.359Z,69
2023-02-27T07:59:29.767Z,69
2023-02-27T08:01:30.376Z,69
2023-02-27T08:03:30.624Z,69
2023-02-27T08:05:29.846Z,68
2023-02-27T08:09:29.719Z,68
2023-02-27T08:11:27.609Z,68
2023-02-27T08:13:58.873Z,67
2023-02-27T08:17:29.833Z,67
2023-02-27T08:21:30.139Z,66
2023-02-27T08:23:29.800Z,67
2023-02-27T08:25:27.091Z,66
2023-02-27T08:27:29.608Z,66
2023-02-27T08:29:29.827Z,66
2023-02-27T08:31:29.898Z,65
2023-02-27T08:33:29.899Z,65
2023-02-27T08:35:29.837Z,64
2023-02-27T08:37:33.196Z,64
2023-02-27T08:39:29.799Z,64
2023-02-27T08:41:29.892Z,64
2023-02-27T08:43:31.431Z,64
2023-02-27T08:45:29.885Z,64
2023-02-27T08:47:34.037Z,63
2023-02-27T08:51:32.644Z,64
2023-02-27T08:53:28.269Z,64
2023-02-27T08:55:29.863Z,64
2023-02-27T08:57:29.804Z,63
2023-02-27T08:59:29.795Z,63
2023-02-27T09:01:31.191Z,62
2023-02-27T09:03:32.771Z,62
2023-02-27T09:05:29.835Z,63
2023-02-27T09:07:29.779Z,62
2023-02-27T09:09:29.783Z,63
2023-02-27T09:13:33.016Z,63
2023-02-27T09:15:29.853Z,64
2023-02-27T09:19:33.342Z,64
2023-02-27T09:21:29.774Z,63
2023-02-27T09:25:29.846Z,62
2023-02-27T09:27:29.944Z,62
2023-02-27T09:31:33.139Z,62
2023-02-27T09:33:29.856Z,63
2023-02-27T09:35:29.944Z,64
2023-02-27T09:37:31.561Z,64
2023-02-27T09:39:33.327Z,62
2023-02-27T09:41:29.844Z,64
2023-02-27T09:43:29.868Z,66
2023-02-27T09:45:29.932Z,68
2023-02-27T09:47:33.390Z,67
2023-02-27T09:49:29.829Z,69
2023-02-27T09:51:30.012Z,68
2023-02-27T09:53:32.724Z,68
2023-02-27T09:55:29.881Z,68
2023-02-27T09:57:29.906Z,66
2023-02-27T09:59:29.845Z,66
2023-02-27T10:01:30.433Z,68
2023-02-27T10:03:31.048Z,68
2023-02-27T10:05:31.490Z,69
2023-02-27T10:07:36.379Z,68
2023-02-27T10:09:29.760Z,68
2023-02-27T10:11:33.544Z,67
2023-02-27T10:13:29.758Z,68
2023-02-27T10:15:33.598Z,67
2023-02-27T10:17:29.859Z,67
2023-02-27T10:19:33.179Z,64
2023-02-27T10:21:33.205Z,64
2023-02-27T10:23:29.855Z,62
2023-02-27T10:25:32.407Z,61
2023-02-27T10:27:27.039Z,60
2023-02-27T10:29:31.483Z,61
2023-02-27T10:31:30.236Z,60
2023-02-27T10:33:33.609Z,60
2023-02-27T10:35:27.168Z,60
2023-02-27T10:39:29.858Z,60
2023-02-27T10:41:30.287Z,60
2023-02-27T10:43:29.901Z,60
2023-02-27T10:45:29.912Z,60
2023-02-27T10:47:29.992Z,59
2023-02-27T10:49:29.842Z,60
2023-02-27T10:51:29.942Z,60
2023-02-27T10:53:36.252Z,59
2023-02-27T10:55:34.151Z,60
2023-02-27T10:57:29.831Z,59
2023-02-27T10:59:31.479Z,59
2023-02-27T11:01:30.086Z,59
2023-02-27T11:05:29.835Z,59
2023-02-27T11:07:29.921Z,61
2023-02-27T11:09:33.130Z,60
2023-02-27T11:11:29.933Z,61
2023-02-27T11:13:29.888Z,61
2023-02-27T11:15:29.961Z,61
2023-02-27T11:17:30.489Z,60
2023-02-27T11:19:29.660Z,59
2023-02-27T11:21:30.102Z,60
2023-02-27T11:23:29.936Z,60
2023-02-27T11:25:33.597Z,59
2023-02-27T11:29:34.092Z,58
2023-02-27T11:31:30.212Z,58
2023-02-27T11:33:30.000Z,60
2023-02-27T11:35:30.219Z,60
2023-02-27T11:37:33.615Z,60
2023-02-27T11:39:29.994Z,60
2023-02-27T11:41:30.202Z,60
2023-02-27T11:43:30.036Z,60
2023-02-27T11:46:03.943Z,60
2023-02-27T11:47:30.042Z,61
2023-02-27T11:49:33.467Z,60
2023-02-27T11:51:29.965Z,60
2023-02-27T11:53:29.821Z,58
2023-02-27T11:57:31.512Z,60
2023-02-27T12:01:29.892Z,61
2023-02-27T12:03:29.816Z,60
2023-02-27T12:05:29.814Z,59
2023-02-27T12:07:29.830Z,59
2023-02-27T12:09:29.801Z,56
2023-02-27T12:11:33.853Z,58
2023-02-27T12:13:29.875Z,57
2023-02-27T12:15:27.433Z,58
2023-02-27T12:17:31.565Z,58
2023-02-27T12:19:29.836Z,57
2023-02-27T12:21:33.057Z,56
2023-02-27T12:23:33.450Z,57
2023-02-27T12:25:29.813Z,55
2023-02-27T12:29:36.680Z,55
2023-02-27T12:33:31.673Z,55
2023-02-27T12:35:30.366Z,55
2023-02-27T12:37:33.957Z,55
2023-02-27T12:39:29.892Z,56
2023-02-27T12:41:31.865Z,55
2023-02-27T12:43:27.049Z,54
2023-02-27T12:47:31.525Z,55
2023-02-27T12:51:30.126Z,55
2023-02-27T12:53:29.886Z,55
2023-02-27T12:55:34.905Z,56
2023-02-27T12:57:29.797Z,54
2023-02-27T12:59:29.891Z,55
2023-02-27T13:01:30.193Z,55
2023-02-27T13:03:29.889Z,55
2023-02-27T13:07:27.033Z,54
2023-02-27T13:09:29.949Z,54
2023-02-27T13:11:33.961Z,55
2023-02-27T13:13:32.546Z,55
2023-02-27T13:17:29.873Z,55
2023-02-27T13:19:29.847Z,55
2023-02-27T13:21:30.182Z,56
2023-02-27T13:23:29.925Z,55
2023-02-27T13:25:29.962Z,56
2023-02-27T13:27:34.594Z,56
2023-02-27T13:29:34.865Z,55
2023-02-27T13:31:31.654Z,54
2023-02-27T13:33:33.482Z,54
2023-02-27T13:35:35.295Z,55
2023-02-27T13:37:29.824Z,56
2023-02-27T13:39:33.681Z,55
2023-02-27T13:41:35.808Z,55
2023-02-27T13:43:33.148Z,56
2023-02-27T13:45:29.858Z,55
2023-02-27T13:47:33.085Z,56
2023-02-27T13:51:29.978Z,56
2023-02-27T13:53:30.894Z,57
2023-02-27T13:55:31.826Z,58
2023-02-27T13:57:30.032Z,58
2023-02-27T13:59:30.026Z,58
2023-02-27T14:01:31.925Z,58
2023-02-27T14:05:30.288Z,57
2023-02-27T14:07:33.645Z,58
2023-02-27T14:09:29.984Z,59
2023-02-27T14:11:30.193Z,58
2023-02-27T14:13:29.724Z,59
2023-02-27T14:15:30.481Z,58
2023-02-27T14:17:29.794Z,59
2023-02-27T14:19:30.026Z,60
2023-02-27T14:21:30.013Z,60
2023-02-27T14:23:30.032Z,57
2023-02-27T14:25:33.506Z,58
2023-02-27T14:27:33.476Z,58
2023-02-27T14:29:29.942Z,59
2023-02-27T14:33:39.931Z,59
2023-02-27T14:35:30.426Z,61
2023-02-27T14:37:33.822Z,62
2023-02-27T14:39:30.099Z,62
2023-02-27T14:41:30.212Z,63
2023-02-27T14:43:34.875Z,62
2023-02-27T14:45:30.086Z,63
2023-02-27T14:47:30.082Z,62
2023-02-27T14:49:30.135Z,63
2023-02-27T14:51:30.409Z,63
2023-02-27T14:53:31.153Z,63
2023-02-27T14:55:30.267Z,63
2023-02-27T14:57:32.513Z,63
2023-02-27T14:59:30.175Z,64
2023-02-27T15:01:34.983Z,65
2023-02-27T15:03:31.877Z,65
2023-02-27T15:05:31.766Z,65
2023-02-27T15:07:30.201Z,65
2023-02-27T15:09:30.252Z,65
2023-02-27T15:11:30.521Z,65
2023-02-27T15:15:33.890Z,65
2023-02-27T15:17:33.720Z,65
2023-02-27T15:19:33.733Z,66
2023-02-27T15:21:34.160Z,67
2023-02-27T15:25:30.091Z,66
2023-02-27T15:27:30.543Z,66
2023-02-27T15:29:30.174Z,67
2023-02-27T15:31:30.510Z,65
2023-02-27T15:33:30.082Z,65
2023-02-27T15:35:30.203Z,66
2023-02-27T15:39:30.114Z,65
2023-02-27T15:41:36.589Z,65
2023-02-27T15:43:27.215Z,66
2023-02-27T15:45:30.026Z,66
2023-02-27T15:47:30.038Z,67
2023-02-27T15:49:36.720Z,67
2023-02-27T15:51:32.478Z,67
2023-02-27T15:53:32.965Z,66
2023-02-27T15:55:33.942Z,67
2023-02-27T15:59:30.030Z,66
2023-02-27T16:01:30.556Z,67
2023-02-27T16:03:31.734Z,66
2023-02-27T16:05:27.250Z,67
2023-02-27T16:07:30.304Z,67
2023-02-27T16:09:29.772Z,66
2023-02-27T16:11:30.254Z,66
2023-02-27T16:13:33.340Z,67
2023-02-27T16:15:30.059Z,67
2023-02-27T16:17:30.957Z,66
2023-02-27T16:19:33.669Z,66
2023-02-27T16:21:33.694Z,67
2023-02-27T16:23:30.039Z,65
2023-02-27T16:25:30.311Z,66
2023-02-27T16:27:29.984Z,67
2023-02-27T16:29:29.965Z,67
2023-02-27T16:31:30.118Z,66
2023-02-27T16:33:30.118Z,66
2023-02-27T16:35:36.712Z,66
2023-02-27T16:37:33.619Z,65
2023-02-27T16:39:30.020Z,66
2023-02-27T16:41:32.768Z,68
2023-02-27T16:43:35.363Z,67
2023-02-27T16:45:30.165Z,68
2023-02-27T16:47:33.813Z,68
2023-02-27T16:49:31.247Z,69
2023-02-27T16:51:30.047Z,67
2023-02-27T16:53:30.870Z,68
2023-02-27T16:55:31.499Z,67
2023-02-27T16:57:30.003Z,68
2023-02-27T17:01:37.054Z,68
2023-02-27T17:03:29.974Z,69
2023-02-27T17:07:30.812Z,70
2023-02-27T17:09:30.134Z,70
2023-02-27T17:11:31.837Z,70
2023-02-27T17:13:35.324Z,70
2023-02-27T17:15:30.432Z,70
2023-02-27T17:17:29.987Z,69
2023-02-27T17:19:29.984Z,70
2023-02-27T17:21:30.553Z,70
2023-02-27T17:23:29.992Z,70
2023-02-27T17:25:30.007Z,70
2023-02-27T17:27:29.997Z,71
2023-02-27T17:29:29.991Z,71
2023-02-27T17:31:30.071Z,71
2023-02-27T17:33:30.090Z,71
2023-02-27T17:35:33.203Z,71
2023-02-27T17:37:29.971Z,70
2023-02-27T17:41:33.172Z,70
2023-02-27T17:43:30.027Z,69
2023-02-27T17:45:30.050Z,70
2023-02-27T17:47:30.100Z,71
2023-02-27T17:49:30.428Z,69
2023-02-27T17:51:29.995Z,70
2023-02-27T17:53:30.327Z,70
2023-02-27T17:55:29.964Z,69
2023-02-27T17:57:29.990Z,70
2023-02-27T17:59:29.956Z,70
2023-02-27T18:01:30.191Z,69
2023-02-27T18:03:29.978Z,69
2023-02-27T18:05:27.246Z,70
2023-02-27T18:07:30.363Z,69
2023-02-27T18:09:29.956Z,69
2023-02-27T18:11:29.826Z,69
2023-02-27T18:13:30.025Z,69
2023-02-27T18:15:33.161Z,70
2023-02-27T18:17:29.990Z,70
2023-02-27T18:19:32.325Z,69
2023-02-27T18:21:30.073Z,70
2023-02-27T18:23:36.877Z,69
2023-02-27T18:25:30.037Z,69
2023-02-27T18:27:36.788Z,69
2023-02-27T18:29:29.989Z,68
2023-02-27T18:31:31.741Z,69
2023-02-27T18:33:31.400Z,69
2023-02-27T18:35:33.312Z,70
2023-02-27T18:39:32.004Z,71
2023-02-27T18:41:33.010Z,71
2023-02-27T18:43:29.991Z,71
2023-02-27T18:45:33.266Z,71
2023-02-27T18:47:33.114Z,71
2023-02-27T18:49:30.421Z,72
2023-02-27T18:51:33.346Z,71
2023-02-27T18:53:30.208Z,72
2023-02-27T18:55:29.993Z,71
2023-02-27T18:57:30.016Z,72
2023-02-27T18:59:29.748Z,72
2023-02-27T19:03:30.145Z,73
2023-02-27T19:05:28.460Z,73
2023-02-27T19:09:29.955Z,72
2023-02-27T19:11:31.280Z,72
2023-02-27T19:13:30.025Z,72
2023-02-27T19:15:30.342Z,72
2023-02-27T19:17:30.027Z,72
2023-02-27T19:19:29.992Z,73
2023-02-27T19:21:30.031Z,73
2023-02-27T19:23:33.512Z,73
2023-02-27T19:25:33.180Z,73
2023-02-27T19:27:30.038Z,73
2023-02-27T19:29:29.985Z,73
2023-02-27T19:31:30.073Z,74
2023-02-27T19:33:30.073Z,74
2023-02-27T19:35:33.641Z,73
2023-02-27T19:37:30.087Z,73
2023-02-27T19:39:29.999Z,73
2023-02-27T19:41:31.836Z,73
2023-02-27T19:43:30.039Z,73
2023-02-27T19:45:30.038Z,74
2023-02-27T19:47:27.276Z,74
2023-02-27T19:49:30.044Z,74
2023-02-27T19:51:33.282Z,74
2023-02-27T19:53:36.211Z,74
2023-02-27T19:55:33.728Z,75
2023-02-27T19:57:33.197Z,75
2023-02-27T19:59:35.680Z,76
2023-02-27T20:01:30.083Z,77
2023-02-27T20:03:30.086Z,77
2023-02-27T20:05:36.805Z,77
2023-02-27T20:07:30.364Z,77
2023-02-27T20:09:33.128Z,77
2023-02-27T20:11:30.060Z,77
2023-02-27T20:13:30.017Z,77
2023-02-27T20:15:30.040Z,78
2023-02-27T20:17:29.930Z,78
2023-02-27T20:19:29.993Z,78
2023-02-27T20:21:30.448Z,79
2023-02-27T20:23:30.084Z,79
2023-02-27T20:25:30.422Z,80
2023-02-27T20:27:30.107Z,80
2023-02-27T20:31:30.713Z,81
2023-02-27T20:33:31.696Z,82
2023-02-27T20:35:30.015Z,82
2023-02-27T20:37:29.993Z,82
2023-02-27T20:39:29.750Z,82
2023-02-27T20:41:30.777Z,82
2023-02-27T20:43:33.494Z,82
2023-02-27T20:45:29.995Z,82
2023-02-27T20:47:29.962Z,82
2023-02-27T20:49:29.970Z,83
2023-02-27T20:51:30.709Z,82
2023-02-27T20:53:33.189Z,82
2023-02-27T20:55:29.992Z,83
2023-02-27T20:57:33.827Z,82
2023-02-27T20:59:33.190Z,82
2023-02-27T21:01:30.320Z,82
2023-02-27T21:05:30.036Z,82
2023-02-27T21:07:30.040Z,82
2023-02-27T21:09:30.057Z,82
2023-02-27T21:11:28.739Z,82
2023-02-27T21:13:30.190Z,81
2023-02-27T21:15:30.040Z,80
2023-02-27T21:17:30.444Z,79
2023-02-27T21:19:30.017Z,80
2023-02-27T21:21:30.024Z,80
2023-02-27T21:25:34.029Z,80
2023-02-27T21:27:30.031Z,80
2023-02-27T21:29:32.969Z,80
2023-02-27T21:31:32.268Z,79
2023-02-27T21:33:33.193Z,79
2023-02-27T21:35:32.981Z,79
2023-02-27T21:37:33.239Z,79
2023-02-27T21:39:29.998Z,79
2023-02-27T21:41:30.346Z,79
2023-02-27T21:43:30.010Z,79
2023-02-27T21:45:30.033Z,79
2023-02-27T21:47:30.015Z,79
2023-02-27T21:49:30.031Z,79
2023-02-27T21:51:39.127Z,79
2023-02-27T21:53:33.247Z,79
2023-02-27T21:57:29.970Z,79
2023-02-27T21:59:29.999Z,79
2023-02-27T22:01:30.444Z,79
2023-02-27T22:03:29.998Z,79
2023-02-27T22:05:33.551Z,79
2023-02-27T22:07:29.990Z,79
2023-02-27T22:09:31.733Z,80
2023-02-27T22:11:30.577Z,79
2023-02-27T22:13:29.973Z,80
2023-02-27T22:15:33.303Z,80
2023-02-27T22:17:29.969Z,80
2023-02-27T22:19:30.008Z,80
2023-02-27T22:21:30.426Z,80
2023-02-27T22:23:30.000Z,80
2023-02-27T22:25:30.299Z,79
2023-02-27T22:27:30.009Z,79
2023-02-27T22:29:30.068Z,79
2023-02-27T22:31:33.658Z,79
2023-02-27T22:33:30.632Z,79
2023-02-27T22:35:30.024Z,79
2023-02-27T22:37:31.702Z,79
2023-02-27T22:39:30.311Z,80
2023-02-27T22:41:36.846Z,79
2023-02-27T22:43:36.593Z,79
2023-02-27T22:47:30.320Z,79
2023-02-27T22:49:31.724Z,79
2023-02-27T22:51:33.049Z,79
2023-02-27T22:53:31.721Z,79
2023-02-27T22:57:29.998Z,79
2023-02-27T23:01:30.285Z,79
2023-02-27T23:03:33.316Z,80
2023-02-27T23:05:30.023Z,80
2023-02-27T23:11:30.359Z,80
2023-02-27T23:13:29.807Z,80
2023-02-27T23:15:30.017Z,80
2023-02-27T23:17:33.235Z,80
2023-02-27T23:19:36.359Z,79
2023-02-27T23:21:30.502Z,80
2023-02-27T23:23:33.221Z,80
2023-02-27T23:25:29.994Z,80
2023-02-27T23:27:33.272Z,80
2023-02-27T23:29:33.180Z,80
2023-02-27T23:31:31.675Z,80
2023-02-27T23:33:30.010Z,80
2023-02-27T23:35:33.097Z,80
2023-02-27T23:37:33.284Z,80
2023-02-27T23:39:30.004Z,80
2023-02-27T23:41:30.437Z,81
2023-02-27T23:43:30.308Z,81
2023-02-27T23:45:30.044Z,80
2023-02-27T23:47:30.065Z,80
2023-02-27T23:49:30.038Z,81
2023-02-27T23:51:33.651Z,80
2023-02-27T23:53:30.012Z,80
2023-02-27T23:55:29.799Z,81
2023-02-27T23:59:30.129Z,80
